Time;durP1;ratioP1;P1;durP2;ratioP2;P2;SDS_P1;SDS_P2;PMS_P1;PMS_P2;Temp;Humidity;BMP_temperature;BMP_pressure;BME280_temperature;BME280_humidity;BME280_pressure;Samples;Min_cycle;Max_cycle;Signal;HPM_P1;HPM_P2
2022/07/23 00:01:30;;;;;;;3.53;2.75;;;;;;;;;;4232103;33;20522;-62
2022/07/23 00:03:56;;;;;;;4.30;2.50;;;;;;;;;;4218963;33;20549;-62
2022/07/23 00:35:09;;;;;;;6.10;2.60;;;;;;;;;;4702993;28;20522;-64
2022/07/23 00:37:35;;;;;;;4.18;2.47;;;;;;;;;;4234993;33;20089;-63
2022/07/23 00:40:01;;;;;;;3.08;2.30;;;;;;;;;;4248258;33;20128;-63
2022/07/23 00:42:27;;;;;;;5.03;2.30;;;;;;;;;;4248677;33;20189;-63
2022/07/23 00:44:53;;;;;;;3.22;2.78;;;;;;;;;;4248369;33;20120;-67
2022/07/23 00:47:19;;;;;;;4.68;2.35;;;;;;;;;;4248246;33;20542;-68
2022/07/23 00:49:45;;;;;;;3.17;2.47;;;;;;;;;;4248911;33;20300;-67
2022/07/23 00:52:11;;;;;;;5.85;2.60;;;;;;;;;;4235385;33;20211;-68
2022/07/23 00:54:37;;;;;;;3.15;2.70;;;;;;;;;;4223447;33;20129;-68
2022/07/23 00:57:03;;;;;;;5.75;2.75;;;;;;;;;;4234950;33;20121;-64
2022/07/23 00:59:30;;;;;;;5.90;2.50;;;;;;;;;;4248333;33;20137;-63
2022/07/23 01:01:56;;;;;;;3.28;2.42;;;;;;;;;;4247824;33;20162;-63
2022/07/23 01:04:22;;;;;;;3.22;2.15;;;;;;;;;;4234858;33;20143;-64
2022/07/23 01:06:48;;;;;;;2.50;2.30;;;;;;;;;;4247877;33;20448;-63
2022/07/23 01:09:14;;;;;;;3.35;2.40;;;;;;;;;;4247658;33;20125;-64
2022/07/23 01:11:41;;;;;;;4.80;2.55;;;;;;;;;;4234531;33;20155;-63
2022/07/23 01:14:11;;;;;;;2.62;2.35;;;;;;;;;;4247778;33;20135;-63
2022/07/23 01:16:37;;;;;;;3.85;2.30;;;;;;;;;;4234482;33;20300;-63
2022/07/23 01:19:06;;;;;;;3.33;2.42;;;;;;;;;;4247503;33;20132;-63
2022/07/23 01:21:35;;;;;;;2.80;2.50;;;;;;;;;;4247572;33;20187;-68
2022/07/23 01:24:01;;;;;;;3.90;2.45;;;;;;;;;;4234387;33;20566;-68
2022/07/23 01:26:27;;;;;;;2.60;2.40;;;;;;;;;;4247749;33;20089;-68
2022/07/23 01:28:53;;;;;;;4.00;2.60;;;;;;;;;;4234162;33;20084;-68
2022/07/23 01:31:19;;;;;;;4.55;2.30;;;;;;;;;;4247490;33;20172;-68
2022/07/23 01:33:45;;;;;;;4.15;2.55;;;;;;;;;;4247534;33;20104;-68
2022/07/23 01:36:11;;;;;;;2.85;2.55;;;;;;;;;;4234206;33;20112;-68
2022/07/23 01:38:37;;;;;;;2.80;2.17;;;;;;;;;;4247404;33;20152;-68
2022/07/23 01:41:03;;;;;;;4.45;2.60;;;;;;;;;;4247340;33;20096;-67
2022/07/23 01:43:29;;;;;;;2.65;2.37;;;;;;;;;;4233821;33;20539;-68
2022/07/23 01:45:55;;;;;;;2.40;2.20;;;;;;;;;;4247283;33;20161;-68
2022/07/23 01:48:21;;;;;;;3.67;2.22;;;;;;;;;;4247706;33;20109;-68
2022/07/23 01:50:47;;;;;;;2.83;2.30;;;;;;;;;;4247366;33;20907;-69
2022/07/23 01:53:14;;;;;;;2.60;2.40;;;;;;;;;;4247353;33;20139;-69
2022/07/23 01:55:41;;;;;;;6.80;2.47;;;;;;;;;;4247348;33;20108;-69
2022/07/23 01:58:07;;;;;;;2.75;2.35;;;;;;;;;;4247288;33;20516;-69
2022/07/23 02:00:33;;;;;;;2.97;2.50;;;;;;;;;;4247282;33;20131;-69
2022/07/23 02:02:59;;;;;;;2.53;2.33;;;;;;;;;;4247297;33;20188;-68
2022/07/23 02:05:26;;;;;;;3.00;2.80;;;;;;;;;;4247111;33;20218;-67
2022/07/23 02:07:52;;;;;;;3.12;2.80;;;;;;;;;;4247106;33;20085;-67
2022/07/23 02:10:18;;;;;;;3.00;2.37;;;;;;;;;;4247522;33;20190;-68
2022/07/23 02:12:44;;;;;;;2.45;2.25;;;;;;;;;;4247351;33;20092;-67
2022/07/23 02:15:10;;;;;;;4.47;2.42;;;;;;;;;;4247246;33;20203;-67
2022/07/23 02:17:36;;;;;;;3.25;2.53;;;;;;;;;;4247085;33;20212;-67
2022/07/23 02:20:03;;;;;;;2.53;2.33;;;;;;;;;;4233899;33;20215;-67
2022/07/23 02:22:29;;;;;;;2.95;2.45;;;;;;;;;;4234007;33;20139;-67
2022/07/23 02:24:55;;;;;;;4.62;2.37;;;;;;;;;;4247081;33;20173;-67
2022/07/23 02:27:21;;;;;;;4.82;2.50;;;;;;;;;;4233819;33;20087;-69
2022/07/23 02:29:47;;;;;;;2.95;2.72;;;;;;;;;;4247158;33;20100;-68
2022/07/23 02:32:13;;;;;;;5.32;2.80;;;;;;;;;;4233871;33;20134;-68
2022/07/23 02:34:39;;;;;;;2.67;2.47;;;;;;;;;;4246916;33;20093;-68
2022/07/23 02:37:05;;;;;;;3.17;2.72;;;;;;;;;;4246952;33;20103;-68
2022/07/23 02:39:31;;;;;;;3.40;2.60;;;;;;;;;;4246936;33;20113;-68
2022/07/23 02:41:57;;;;;;;2.80;2.60;;;;;;;;;;4247089;33;20226;-68
2022/07/23 02:44:23;;;;;;;3.67;2.90;;;;;;;;;;4247090;33;20109;-68
2022/07/23 02:46:49;;;;;;;4.70;2.92;;;;;;;;;;4246776;33;20109;-68
2022/07/23 02:49:15;;;;;;;3.35;2.87;;;;;;;;;;4233733;33;20207;-69
2022/07/23 02:51:42;;;;;;;4.18;3.53;;;;;;;;;;4247027;33;20108;-68
2022/07/23 02:54:08;;;;;;;3.08;2.78;;;;;;;;;;4233299;33;20539;-68
2022/07/23 02:56:34;;;;;;;3.25;2.95;;;;;;;;;;4246405;33;20105;-68
2022/07/23 02:59:00;;;;;;;4.32;2.97;;;;;;;;;;4233553;33;20476;-69
2022/07/23 03:01:26;;;;;;;5.62;2.92;;;;;;;;;;4246716;33;20116;-69
2022/07/23 03:03:52;;;;;;;3.22;2.92;;;;;;;;;;4221774;33;20533;-67
2022/07/23 03:06:18;;;;;;;4.80;2.80;;;;;;;;;;4222041;33;20097;-68
2022/07/23 03:08:44;;;;;;;4.87;3.10;;;;;;;;;;4233446;33;20138;-68
2022/07/23 03:11:13;;;;;;;8.18;3.08;;;;;;;;;;4246799;33;20089;-69
2022/07/23 03:13:40;;;;;;;4.43;3.30;;;;;;;;;;4233641;33;20128;-67
2022/07/23 03:16:06;;;;;;;4.78;2.75;;;;;;;;;;4246472;33;20184;-71
2022/07/23 03:18:33;;;;;;;6.68;3.15;;;;;;;;;;4233288;33;20203;-69
2022/07/23 03:20:59;;;;;;;5.95;3.12;;;;;;;;;;4246478;33;20552;-70
2022/07/23 03:23:25;;;;;;;5.62;3.20;;;;;;;;;;4233345;33;20125;-69
2022/07/23 03:25:52;;;;;;;8.25;4.47;;;;;;;;;;4246464;33;20539;-71
2022/07/23 03:28:19;;;;;;;11.40;4.43;;;;;;;;;;4246207;33;20195;-69
2022/07/23 03:30:46;;;;;;;8.80;4.25;;;;;;;;;;4233275;33;20097;-69
2022/07/23 03:33:16;;;;;;;14.90;5.85;;;;;;;;;;4221473;33;20564;-69
2022/07/23 03:35:43;;;;;;;9.80;5.43;;;;;;;;;;4233362;33;20128;-70
2022/07/23 03:38:09;;;;;;;8.60;5.00;;;;;;;;;;4221802;33;20100;-69
2022/07/23 03:40:35;;;;;;;14.13;6.28;;;;;;;;;;4233739;33;20235;-69
2022/07/23 03:43:05;;;;;;;18.87;6.65;;;;;;;;;;4246782;33;20104;-71
2022/07/23 03:45:31;;;;;;;16.50;7.45;;;;;;;;;;4233656;33;20222;-71
2022/07/23 03:47:58;;;;;;;20.17;8.63;;;;;;;;;;4233190;33;20550;-61
2022/07/23 03:50:27;;;;;;;13.95;7.93;;;;;;;;;;4221842;33;20123;-65
2022/07/23 03:53:02;;;;;;;15.45;7.95;;;;;;;;;;4223364;33;20112;-64
2022/07/23 03:55:28;;;;;;;17.83;7.28;;;;;;;;;;4246474;33;20191;-64
2022/07/23 03:57:54;;;;;;;16.77;6.55;;;;;;;;;;4246373;33;20128;-69
2022/07/23 04:00:20;;;;;;;19.00;5.78;;;;;;;;;;4246229;33;20100;-64
2022/07/23 04:02:46;;;;;;;12.98;5.80;;;;;;;;;;4221663;33;20092;-61
2022/07/23 04:05:12;;;;;;;14.02;6.68;;;;;;;;;;4246271;33;20114;-64
2022/07/23 04:07:40;;;;;;;20.10;6.25;;;;;;;;;;4247923;33;20116;-63
2022/07/23 04:10:06;;;;;;;16.00;5.22;;;;;;;;;;4235152;33;20116;-69
2022/07/23 04:12:32;;;;;;;10.38;3.95;;;;;;;;;;4223491;33;20834;-63
2022/07/23 04:14:58;;;;;;;9.05;3.97;;;;;;;;;;4248538;33;20097;-63
2022/07/23 04:17:24;;;;;;;9.48;3.80;;;;;;;;;;4248108;33;20199;-65
2022/07/23 04:19:53;;;;;;;12.43;4.53;;;;;;;;;;4248194;33;20111;-63
2022/07/23 04:22:19;;;;;;;10.82;4.20;;;;;;;;;;4248151;33;20136;-63
2022/07/23 04:24:45;;;;;;;13.00;4.95;;;;;;;;;;4248195;33;20222;-62
2022/07/23 04:27:11;;;;;;;11.02;5.68;;;;;;;;;;4248157;33;20136;-62
2022/07/23 04:29:37;;;;;;;13.30;4.85;;;;;;;;;;4247986;33;20192;-62
2022/07/23 04:32:03;;;;;;;12.10;4.85;;;;;;;;;;4235122;33;20460;-63
2022/07/23 04:34:30;;;;;;;13.60;5.70;;;;;;;;;;4248302;33;20441;-63
2022/07/23 04:36:56;;;;;;;17.75;6.43;;;;;;;;;;4235053;33;20108;-63
2022/07/23 04:39:22;;;;;;;13.30;7.00;;;;;;;;;;4234722;33;20101;-63
2022/07/23 04:41:48;;;;;;;14.90;9.10;;;;;;;;;;4234882;33;20619;-62
2022/07/23 04:44:14;;;;;;;14.85;9.35;;;;;;;;;;4247767;33;20211;-64
2022/07/23 04:46:40;;;;;;;16.92;10.18;;;;;;;;;;4247944;33;20567;-62
2022/07/23 04:49:06;;;;;;;19.30;11.38;;;;;;;;;;4247580;33;20116;-60
2022/07/23 04:51:32;;;;;;;14.23;9.32;;;;;;;;;;4222974;33;20318;-61
2022/07/23 04:53:58;;;;;;;15.35;9.55;;;;;;;;;;4247547;33;20103;-61
2022/07/23 04:56:24;;;;;;;18.60;8.80;;;;;;;;;;4247734;33;20120;-62
2022/07/23 04:58:50;;;;;;;18.17;9.35;;;;;;;;;;4247619;33;20167;-62
2022/07/23 05:01:16;;;;;;;27.10;11.20;;;;;;;;;;4247667;33;20132;-63
2022/07/23 05:03:42;;;;;;;25.00;12.02;;;;;;;;;;4247642;33;20215;-62
2022/07/23 05:06:09;;;;;;;20.67;9.90;;;;;;;;;;4247656;33;20589;-63
2022/07/23 05:08:35;;;;;;;24.27;10.68;;;;;;;;;;4247695;33;20100;-63
2022/07/23 05:11:01;;;;;;;40.35;10.93;;;;;;;;;;4246294;33;20104;-63
2022/07/23 05:13:27;;;;;;;23.92;8.68;;;;;;;;;;4234576;33;20085;-60
2022/07/23 05:15:53;;;;;;;31.60;7.85;;;;;;;;;;4247713;33;20192;-59
2022/07/23 05:18:19;;;;;;;30.45;8.60;;;;;;;;;;4210902;33;20140;-62
2022/07/23 05:20:45;;;;;;;22.45;7.75;;;;;;;;;;4247412;33;20268;-62
2022/07/23 05:23:11;;;;;;;19.55;7.65;;;;;;;;;;4247464;33;20213;-62
2022/07/23 05:25:37;;;;;;;20.00;6.65;;;;;;;;;;4247819;33;20121;-62
2022/07/23 05:28:03;;;;;;;9.27;4.93;;;;;;;;;;4247366;33;20119;-69
2022/07/23 05:30:29;;;;;;;4.80;3.60;;;;;;;;;;4247395;33;20481;-67
2022/07/23 05:32:55;;;;;;;17.65;3.90;;;;;;;;;;4222526;33;20132;-64
2022/07/23 05:35:21;;;;;;;5.65;3.00;;;;;;;;;;4247703;33;20576;-66
2022/07/23 05:37:47;;;;;;;2.70;2.50;;;;;;;;;;4247494;33;20108;-64
2022/07/23 05:40:14;;;;;;;3.35;2.70;;;;;;;;;;4247803;33;20170;-64
2022/07/23 05:42:42;;;;;;;7.30;2.75;;;;;;;;;;4234115;33;20097;-66
2022/07/23 05:45:09;;;;;;;7.90;2.90;;;;;;;;;;4247660;33;20112;-63
2022/07/23 05:47:49;;;;;;;3.12;2.70;;;;;;;;;;4223284;33;20146;-66
2022/07/23 05:50:16;;;;;;;3.37;3.08;;;;;;;;;;4222575;33;20113;-64
2022/07/23 05:52:42;;;;;;;4.32;2.87;;;;;;;;;;4233985;33;20119;-65
2022/07/23 05:55:10;;;;;;;8.85;3.60;;;;;;;;;;4246698;33;20128;-63
2022/07/23 05:57:36;;;;;;;6.37;4.00;;;;;;;;;;4247215;33;20230;-64
2022/07/23 06:00:04;;;;;;;14.30;5.90;;;;;;;;;;4233990;33;20120;-63
2022/07/23 06:02:30;;;;;;;18.98;8.65;;;;;;;;;;4247359;33;20529;-63
2022/07/23 06:04:56;;;;;;;24.75;6.47;;;;;;;;;;4247354;33;20104;-63
2022/07/23 06:07:22;;;;;;;25.50;8.38;;;;;;;;;;4247512;33;20124;-63
2022/07/23 06:09:49;;;;;;;22.65;7.15;;;;;;;;;;4247113;33;20223;-63
2022/07/23 06:12:16;;;;;;;28.48;9.40;;;;;;;;;;4247420;33;20117;-63
2022/07/23 06:14:42;;;;;;;28.62;10.68;;;;;;;;;;4247072;33;20096;-63
2022/07/23 06:17:08;;;;;;;30.92;10.75;;;;;;;;;;4247225;33;20492;-62
2022/07/23 06:19:34;;;;;;;21.58;10.63;;;;;;;;;;4246942;33;20607;-64
2022/07/23 06:22:00;;;;;;;19.27;7.12;;;;;;;;;;4246931;33;20131;-62
2022/07/23 06:24:26;;;;;;;10.38;3.92;;;;;;;;;;4247090;33;20089;-65
2022/07/23 06:26:52;;;;;;;8.65;3.10;;;;;;;;;;4247244;33;20120;-67
2022/07/23 06:29:18;;;;;;;4.18;2.40;;;;;;;;;;4246020;33;20136;-67
2022/07/23 06:31:44;;;;;;;3.30;2.55;;;;;;;;;;4246747;33;20100;-61
2022/07/23 06:34:10;;;;;;;9.52;2.55;;;;;;;;;;4246692;33;20502;-64
2022/07/23 06:36:36;;;;;;;6.78;2.72;;;;;;;;;;4247185;33;20528;-64
2022/07/23 06:39:02;;;;;;;5.03;2.40;;;;;;;;;;4246765;33;20199;-64
2022/07/23 06:41:28;;;;;;;2.70;2.05;;;;;;;;;;4247170;33;20124;-63
2022/07/23 06:43:54;;;;;;;2.08;1.92;;;;;;;;;;4246765;33;20123;-64
2022/07/23 06:46:21;;;;;;;2.17;1.98;;;;;;;;;;4246786;33;20112;-64
2022/07/23 06:48:47;;;;;;;3.17;1.90;;;;;;;;;;4221534;33;20529;-63
2022/07/23 06:51:13;;;;;;;3.70;2.20;;;;;;;;;;4245900;33;20115;-63
2022/07/23 06:53:39;;;;;;;3.05;1.98;;;;;;;;;;4232780;33;20660;-65
2022/07/23 06:56:05;;;;;;;3.62;2.17;;;;;;;;;;4233014;33;20516;-64
2022/07/23 06:58:31;;;;;;;3.80;2.53;;;;;;;;;;4245121;33;20319;-64
2022/07/23 07:00:57;;;;;;;5.10;2.30;;;;;;;;;;4244443;33;20104;-64
2022/07/23 07:03:23;;;;;;;5.20;2.00;;;;;;;;;;4244983;33;20123;-64
2022/07/23 07:05:49;;;;;;;4.20;2.20;;;;;;;;;;4245365;33;20132;-64
2022/07/23 07:08:15;;;;;;;6.65;2.40;;;;;;;;;;4245615;33;20125;-64
2022/07/23 07:10:41;;;;;;;4.97;1.98;;;;;;;;;;4232727;33;20116;-64
2022/07/23 07:13:07;;;;;;;5.12;3.03;;;;;;;;;;4246008;33;20128;-64
2022/07/23 07:15:33;;;;;;;2.75;2.08;;;;;;;;;;4221595;33;20460;-64
2022/07/23 07:17:59;;;;;;;4.22;2.62;;;;;;;;;;4246535;33;20140;-64
2022/07/23 07:20:25;;;;;;;4.15;2.22;;;;;;;;;;4246735;33;20089;-64
2022/07/23 07:22:51;;;;;;;4.43;2.55;;;;;;;;;;4246625;33;20128;-64
2022/07/23 07:25:17;;;;;;;2.40;2.12;;;;;;;;;;4233345;33;20422;-64
2022/07/23 07:27:44;;;;;;;2.95;2.15;;;;;;;;;;4246577;33;20536;-64
2022/07/23 07:30:11;;;;;;;7.35;3.12;;;;;;;;;;4246391;33;20437;-64
2022/07/23 07:32:36;;;;;;;2.45;2.25;;;;;;;;;;4246762;33;20096;-63
2022/07/23 07:35:04;;;;;;;2.50;2.12;;;;;;;;;;4246225;33;20102;-64
2022/07/23 07:37:30;;;;;;;4.53;2.62;;;;;;;;;;4233250;33;20127;-65
2022/07/23 07:39:56;;;;;;;6.95;3.10;;;;;;;;;;4246265;33;20556;-64
2022/07/23 07:42:22;;;;;;;2.80;2.30;;;;;;;;;;4246189;33;20121;-64
2022/07/23 07:44:48;;;;;;;5.57;2.75;;;;;;;;;;4246198;33;20130;-64
2022/07/23 07:47:15;;;;;;;8.80;3.90;;;;;;;;;;4246327;33;20553;-65
2022/07/23 07:49:44;;;;;;;13.18;5.00;;;;;;;;;;4246308;33;20624;-64
2022/07/23 07:52:11;;;;;;;11.63;4.32;;;;;;;;;;4246528;33;20200;-65
2022/07/23 07:54:37;;;;;;;16.05;4.87;;;;;;;;;;4246268;33;20139;-65
2022/07/23 07:57:03;;;;;;;14.75;5.60;;;;;;;;;;4246266;33;20136;-65
2022/07/23 07:59:29;;;;;;;6.45;2.90;;;;;;;;;;4246099;33;20116;-65
2022/07/23 08:01:55;;;;;;;8.05;3.42;;;;;;;;;;4246199;33;20122;-64
2022/07/23 08:04:21;;;;;;;5.07;2.75;;;;;;;;;;4246065;33;20615;-64
2022/07/23 08:06:47;;;;;;;6.35;2.55;;;;;;;;;;4233244;33;20143;-64
2022/07/23 08:09:13;;;;;;;3.70;2.30;;;;;;;;;;4246083;33;20699;-64
2022/07/23 08:11:39;;;;;;;7.75;2.30;;;;;;;;;;4246319;33;20196;-64
2022/07/23 08:14:05;;;;;;;7.57;2.03;;;;;;;;;;4245982;33;20115;-64
2022/07/23 08:16:31;;;;;;;2.40;2.20;;;;;;;;;;4246559;33;20192;-63
2022/07/23 08:18:57;;;;;;;5.12;2.30;;;;;;;;;;4233406;33;20552;-64
2022/07/23 08:21:23;;;;;;;2.92;1.98;;;;;;;;;;4246577;33;20267;-64
2022/07/23 08:23:49;;;;;;;2.60;1.90;;;;;;;;;;4245774;33;20262;-63
2022/07/23 08:26:15;;;;;;;2.78;2.00;;;;;;;;;;4232795;33;20132;-64
2022/07/23 08:28:41;;;;;;;2.20;2.05;;;;;;;;;;4245685;33;20152;-63
2022/07/23 08:31:07;;;;;;;2.17;1.98;;;;;;;;;;4245711;33;20112;-64
2022/07/23 08:33:33;;;;;;;2.35;2.15;;;;;;;;;;4245708;33;20212;-64
2022/07/23 08:35:59;;;;;;;2.83;2.33;;;;;;;;;;4245827;33;20120;-64
2022/07/23 08:38:25;;;;;;;3.10;2.30;;;;;;;;;;4246003;33;20111;-64
2022/07/23 08:40:53;;;;;;;4.50;2.22;;;;;;;;;;4232654;33;20101;-64
2022/07/23 08:43:22;;;;;;;8.95;2.12;;;;;;;;;;4245959;33;20142;-64
2022/07/23 08:45:50;;;;;;;4.78;2.00;;;;;;;;;;4232582;33;21277;-64
2022/07/23 08:48:18;;;;;;;8.50;3.83;;;;;;;;;;4232481;33;20139;-64
2022/07/23 08:50:49;;;;;;;5.95;2.80;;;;;;;;;;4245505;33;20442;-64
2022/07/23 08:53:16;;;;;;;4.85;3.10;;;;;;;;;;4246306;33;20438;-64
2022/07/23 08:55:47;;;;;;;11.05;2.95;;;;;;;;;;4234578;33;20612;-64
2022/07/23 08:58:13;;;;;;;2.75;2.08;;;;;;;;;;4247825;33;20203;-64
2022/07/23 09:00:39;;;;;;;2.75;2.03;;;;;;;;;;4247679;33;20124;-64
2022/07/23 09:03:05;;;;;;;4.72;2.25;;;;;;;;;;4234649;33;20148;-64
2022/07/23 09:05:31;;;;;;;8.00;1.87;;;;;;;;;;4247557;33;20120;-64
2022/07/23 09:08:16;;;;;;;6.72;1.98;;;;;;;;;;4247617;33;20125;-64
2022/07/23 09:10:51;;;;;;;4.80;1.90;;;;;;;;;;4234774;33;20112;-63
2022/07/23 09:13:38;;;;;;;2.60;1.92;;;;;;;;;;4247677;33;20488;-64
2022/07/23 09:16:15;;;;;;;2.78;2.28;;;;;;;;;;4247466;33;20116;-64
2022/07/23 09:18:50;;;;;;;4.55;2.28;;;;;;;;;;4247722;33;20624;-64
2022/07/23 09:21:18;;;;;;;2.25;2.00;;;;;;;;;;4247713;33;20100;-63
2022/07/23 09:23:47;;;;;;;2.97;2.08;;;;;;;;;;4247590;33;20116;-63
2022/07/23 09:26:34;;;;;;;5.07;1.77;;;;;;;;;;4247630;33;20437;-63
2022/07/23 09:29:10;;;;;;;2.00;1.80;;;;;;;;;;4247354;33;20288;-64
2022/07/23 09:31:45;;;;;;;1.87;1.42;;;;;;;;;;4247555;33;20108;-63
2022/07/23 09:34:23;;;;;;;1.67;1.37;;;;;;;;;;4247303;33;20097;-62
2022/07/23 09:36:50;;;;;;;2.33;1.98;;;;;;;;;;4247427;33;20120;-64
2022/07/23 09:39:25;;;;;;;1.10;1.10;;;;;;;;;;4234387;33;20101;-63
2022/07/23 09:41:51;;;;;;;4.53;1.77;;;;;;;;;;4247464;33;20734;-64
2022/07/23 09:44:19;;;;;;;1.00;1.00;;;;;;;;;;4247259;33;20132;-64
2022/07/23 09:46:49;;;;;;;2.42;2.12;;;;;;;;;;4247689;33;20116;-64
2022/07/23 09:49:17;;;;;;;1.90;1.80;;;;;;;;;;4211093;33;20128;-63
2022/07/23 09:51:54;;;;;;;2.47;2.17;;;;;;;;;;4234355;33;20124;-64
2022/07/23 09:54:30;;;;;;;4.05;2.67;;;;;;;;;;4234293;33;20469;-64
2022/07/23 09:56:58;;;;;;;5.20;2.20;;;;;;;;;;4247505;33;20124;-62
2022/07/23 09:59:30;;;;;;;2.37;2.17;;;;;;;;;;4247234;33;20117;-64
2022/07/23 10:01:59;;;;;;;2.45;2.20;;;;;;;;;;4234178;33;20108;-64
2022/07/23 10:04:27;;;;;;;2.83;2.50;;;;;;;;;;4233936;33;20120;-64
2022/07/23 10:06:55;;;;;;;3.58;2.70;;;;;;;;;;4247442;33;20116;-64
2022/07/23 10:09:27;;;;;;;4.18;2.40;;;;;;;;;;4247077;33;20136;-65
2022/07/23 10:12:00;;;;;;;5.12;3.53;;;;;;;;;;4234489;33;20492;-64
2022/07/23 10:14:27;;;;;;;5.32;2.70;;;;;;;;;;4247085;33;20624;-64
2022/07/23 10:16:53;;;;;;;5.95;2.37;;;;;;;;;;4247074;33;20101;-64
2022/07/23 10:19:19;;;;;;;4.12;2.50;;;;;;;;;;4233909;33;20107;-64
2022/07/23 10:21:49;;;;;;;2.83;2.35;;;;;;;;;;4234064;33;20505;-64
2022/07/23 10:24:49;;;;;;;2.80;2.10;;;;;;;;;;4222258;33;20094;-64
2022/07/23 10:27:15;;;;;;;3.37;1.95;;;;;;;;;;4233778;33;20108;-64
2022/07/23 10:30:00;;;;;;;12.23;3.60;;;;;;;;;;4247256;33;20111;-64
2022/07/23 10:33:03;;;;;;;8.63;2.80;;;;;;;;;;4233980;33;20128;-64
2022/07/23 10:35:37;;;;;;;8.30;3.85;;;;;;;;;;4246766;33;20203;-64
2022/07/23 10:38:09;;;;;;;5.47;2.83;;;;;;;;;;4234370;33;20545;-64
2022/07/23 10:40:35;;;;;;;4.03;2.30;;;;;;;;;;4246980;33;20105;-64
2022/07/23 10:43:01;;;;;;;12.73;4.87;;;;;;;;;;4246836;33;20219;-65
2022/07/23 10:45:35;;;;;;;16.67;6.60;;;;;;;;;;4246716;33;20104;-64
2022/07/23 10:48:21;;;;;;;9.57;4.10;;;;;;;;;;4246799;33;20125;-64
2022/07/23 10:51:12;;;;;;;14.50;5.53;;;;;;;;;;4246924;33;20105;-64
2022/07/23 10:53:58;;;;;;;27.13;8.00;;;;;;;;;;4234094;33;20116;-64
2022/07/23 10:56:55;;;;;;;12.18;4.75;;;;;;;;;;4247087;33;20116;-64
2022/07/23 10:59:30;;;;;;;8.98;4.00;;;;;;;;;;4246736;33;20092;-64
2022/07/23 11:02:21;;;;;;;6.93;2.90;;;;;;;;;;4225855;33;20097;-64
2022/07/23 11:05:21;;;;;;;3.90;2.42;;;;;;;;;;4227260;33;20121;-64
2022/07/23 11:08:20;;;;;;;3.90;2.30;;;;;;;;;;4246637;33;20195;-64
2022/07/23 11:11:01;;;;;;;7.65;2.42;;;;;;;;;;4223389;33;20563;-63
2022/07/23 11:13:40;;;;;;;4.67;2.53;;;;;;;;;;4246920;33;20591;-64
2022/07/23 11:16:21;;;;;;;4.07;2.47;;;;;;;;;;4232652;33;20108;-64
2022/07/23 11:18:47;;;;;;;3.60;2.40;;;;;;;;;;4246577;33;20528;-64
2022/07/23 11:21:43;;;;;;;4.05;3.42;;;;;;;;;;4224377;33;20104;-64
2022/07/23 11:24:26;;;;;;;2.55;2.17;;;;;;;;;;4246577;33;20108;-64
2022/07/23 11:27:43;;;;;;;5.93;2.47;;;;;;;;;;4223257;33;20105;-64
2022/07/23 11:30:32;;;;;;;2.37;2.17;;;;;;;;;;4246373;33;20509;-65
2022/07/23 11:33:19;;;;;;;4.20;2.60;;;;;;;;;;4228922;33;20108;-65
2022/07/23 11:36:02;;;;;;;2.58;2.10;;;;;;;;;;4221533;33;20128;-64
2022/07/23 11:38:31;;;;;;;2.45;2.22;;;;;;;;;;4233226;33;20438;-63
2022/07/23 11:41:00;;;;;;;3.42;2.35;;;;;;;;;;4233097;33;20200;-63
2022/07/23 11:43:26;;;;;;;2.67;2.20;;;;;;;;;;4246548;33;20091;-64
2022/07/23 11:45:54;;;;;;;2.60;2.35;;;;;;;;;;4233044;33;20236;-63
2022/07/23 11:48:22;;;;;;;4.15;2.28;;;;;;;;;;4233120;33;20200;-64
2022/07/23 11:50:49;;;;;;;3.70;2.55;;;;;;;;;;4232881;33;20149;-63
2022/07/23 11:53:27;;;;;;;6.25;2.55;;;;;;;;;;4246394;33;20422;-66
2022/07/23 11:55:54;;;;;;;5.37;2.42;;;;;;;;;;4246095;33;20112;-64
2022/07/23 11:58:21;;;;;;;2.58;2.30;;;;;;;;;;4246250;33;20104;-64
2022/07/23 12:00:47;;;;;;;4.15;2.40;;;;;;;;;;4246104;33;20134;-63
2022/07/23 12:03:14;;;;;;;4.07;2.12;;;;;;;;;;4246286;33;20123;-64
2022/07/23 12:05:40;;;;;;;3.55;2.28;;;;;;;;;;4233033;33;20436;-64
2022/07/23 12:08:07;;;;;;;7.95;2.70;;;;;;;;;;4246017;33;20093;-62
2022/07/23 12:10:41;;;;;;;2.55;2.20;;;;;;;;;;4245768;33;20116;-62
2022/07/23 12:13:10;;;;;;;4.20;2.10;;;;;;;;;;4245944;33;20607;-62
2022/07/23 12:15:43;;;;;;;2.53;2.03;;;;;;;;;;4245900;33;20120;-62
2022/07/23 12:18:19;;;;;;;2.22;2.03;;;;;;;;;;4245891;33;20093;-62
2022/07/23 12:20:53;;;;;;;5.10;3.30;;;;;;;;;;4232590;33;20098;-62
2022/07/23 12:23:23;;;;;;;2.35;2.00;;;;;;;;;;4245914;33;20125;-62
2022/07/23 12:25:50;;;;;;;2.75;2.45;;;;;;;;;;4245686;33;20533;-62
2022/07/23 12:28:32;;;;;;;3.87;2.72;;;;;;;;;;4246583;33;20184;-63
2022/07/23 12:30:59;;;;;;;3.03;2.72;;;;;;;;;;4247885;33;20108;-63
2022/07/23 12:33:26;;;;;;;5.82;2.72;;;;;;;;;;4248231;33;20116;-63
2022/07/23 12:35:55;;;;;;;3.78;2.45;;;;;;;;;;4248073;33;20123;-63
2022/07/23 12:38:22;;;;;;;4.62;3.28;;;;;;;;;;4247875;33;20211;-61
2022/07/23 12:40:53;;;;;;;3.85;2.85;;;;;;;;;;4247668;33;20488;-61
2022/07/23 12:43:20;;;;;;;4.85;2.47;;;;;;;;;;4234823;33;20111;-62
2022/07/23 12:45:50;;;;;;;5.37;2.83;;;;;;;;;;4247798;33;20107;-61
2022/07/23 12:48:16;;;;;;;4.37;2.75;;;;;;;;;;4247706;33;20180;-62
2022/07/23 12:50:57;;;;;;;2.70;2.45;;;;;;;;;;4234456;33;20218;-62
2022/07/23 12:53:25;;;;;;;3.70;2.30;;;;;;;;;;4234648;33;20127;-65
2022/07/23 12:55:59;;;;;;;4.65;2.80;;;;;;;;;;4247864;33;20136;-64
2022/07/23 12:58:25;;;;;;;7.95;2.40;;;;;;;;;;4247794;33;20203;-64
2022/07/23 13:00:57;;;;;;;4.47;2.35;;;;;;;;;;4247674;33;20445;-62
2022/07/23 13:03:32;;;;;;;6.35;3.20;;;;;;;;;;4247688;33;20206;-64
2022/07/23 13:05:59;;;;;;;4.32;2.90;;;;;;;;;;4234406;33;20124;-61
2022/07/23 13:08:27;;;;;;;4.97;2.65;;;;;;;;;;4247480;33;20627;-62
2022/07/23 13:10:54;;;;;;;7.37;3.25;;;;;;;;;;4247368;33;20464;-61
2022/07/23 13:13:21;;;;;;;3.40;2.85;;;;;;;;;;4247789;33;20179;-62
2022/07/23 13:15:47;;;;;;;10.32;3.35;;;;;;;;;;4234518;33;20298;-62
2022/07/23 13:18:13;;;;;;;4.18;2.80;;;;;;;;;;4247622;33;20493;-61
2022/07/23 13:20:39;;;;;;;4.87;2.92;;;;;;;;;;4247387;33;20121;-61
2022/07/23 13:23:08;;;;;;;4.28;3.20;;;;;;;;;;4247552;33;20198;-62
2022/07/23 13:25:34;;;;;;;3.87;2.90;;;;;;;;;;4247422;33;20101;-62
2022/07/23 13:28:01;;;;;;;6.22;3.03;;;;;;;;;;4234404;33;20137;-62
2022/07/23 13:30:27;;;;;;;7.32;2.87;;;;;;;;;;4247455;33;20116;-63
2022/07/23 13:32:53;;;;;;;9.13;2.78;;;;;;;;;;4247240;33;20123;-63
2022/07/23 13:35:19;;;;;;;5.80;3.85;;;;;;;;;;4234131;33;20117;-63
2022/07/23 13:37:45;;;;;;;8.10;3.80;;;;;;;;;;4247530;33;20113;-63
2022/07/23 13:40:13;;;;;;;5.65;3.62;;;;;;;;;;4247148;33;20191;-63
2022/07/23 13:42:39;;;;;;;14.15;4.62;;;;;;;;;;4222602;33;20108;-62
2022/07/23 13:45:06;;;;;;;8.90;4.20;;;;;;;;;;4247340;33;20220;-63
2022/07/23 13:47:32;;;;;;;4.28;3.20;;;;;;;;;;4234425;33;20188;-63
2022/07/23 13:49:58;;;;;;;6.32;3.85;;;;;;;;;;4247721;33;20112;-63
2022/07/23 13:52:24;;;;;;;5.15;3.60;;;;;;;;;;4247493;33;20119;-63
2022/07/23 13:54:51;;;;;;;7.15;3.78;;;;;;;;;;4247211;33;20460;-63
2022/07/23 13:57:17;;;;;;;5.80;4.45;;;;;;;;;;4222365;33;20201;-63
2022/07/23 13:59:43;;;;;;;6.87;4.78;;;;;;;;;;4247325;33;20536;-64
2022/07/23 14:02:09;;;;;;;6.97;4.43;;;;;;;;;;4247586;33;20119;-64
2022/07/23 14:04:35;;;;;;;8.57;4.43;;;;;;;;;;4247146;33;20109;-64
2022/07/23 14:07:01;;;;;;;7.82;4.68;;;;;;;;;;4247276;33;20097;-64
2022/07/23 14:09:29;;;;;;;9.43;5.40;;;;;;;;;;4234008;33;20615;-63
2022/07/23 14:11:55;;;;;;;9.52;4.18;;;;;;;;;;4247232;33;20131;-64
2022/07/23 14:14:21;;;;;;;7.85;4.20;;;;;;;;;;4247295;33;20637;-63
2022/07/23 14:16:47;;;;;;;9.02;3.95;;;;;;;;;;4247359;33;20444;-62
2022/07/23 14:19:13;;;;;;;9.90;4.68;;;;;;;;;;4247258;33;20112;-64
2022/07/23 14:21:39;;;;;;;8.43;5.03;;;;;;;;;;4247172;33;20113;-63
2022/07/23 14:24:05;;;;;;;12.48;4.90;;;;;;;;;;4247009;33;20093;-63
2022/07/23 14:26:31;;;;;;;7.03;4.75;;;;;;;;;;4247017;33;20117;-64
2022/07/23 14:28:57;;;;;;;11.75;4.85;;;;;;;;;;4246807;33;20116;-63
2022/07/23 14:31:23;;;;;;;7.75;4.32;;;;;;;;;;4247624;33;20532;-64
2022/07/23 14:33:49;;;;;;;5.85;4.20;;;;;;;;;;4247194;33;20077;-64
2022/07/23 14:36:16;;;;;;;7.03;4.12;;;;;;;;;;4222029;33;20128;-64
2022/07/23 14:38:42;;;;;;;9.13;3.87;;;;;;;;;;4234145;33;20121;-64
2022/07/23 14:41:09;;;;;;;5.43;3.90;;;;;;;;;;4246950;33;20461;-64
2022/07/23 14:43:35;;;;;;;6.95;4.05;;;;;;;;;;4233733;33;20113;-64
2022/07/23 14:46:01;;;;;;;6.82;3.62;;;;;;;;;;4246778;33;20113;-63
2022/07/23 14:48:27;;;;;;;6.85;4.00;;;;;;;;;;4246799;33;20122;-63
2022/07/23 14:50:53;;;;;;;4.90;3.70;;;;;;;;;;4246145;33;20100;-62
2022/07/23 14:53:20;;;;;;;5.12;3.60;;;;;;;;;;4221942;33;20136;-62
2022/07/23 14:55:46;;;;;;;5.18;3.62;;;;;;;;;;4222201;33;20192;-63
2022/07/23 14:58:12;;;;;;;4.70;4.10;;;;;;;;;;4233851;33;20128;-62
2022/07/23 15:00:38;;;;;;;4.10;3.25;;;;;;;;;;4246843;33;20476;-63
2022/07/23 15:03:04;;;;;;;4.68;3.53;;;;;;;;;;4246718;33;20109;-63
2022/07/23 15:05:30;;;;;;;4.35;3.72;;;;;;;;;;4233725;33;20530;-62
2022/07/23 15:07:56;;;;;;;8.27;3.80;;;;;;;;;;4221955;33;20115;-63
2022/07/23 15:10:23;;;;;;;5.30;3.45;;;;;;;;;;4233562;33;20591;-63
2022/07/23 15:12:49;;;;;;;5.03;3.67;;;;;;;;;;4246720;33;20517;-63
2022/07/23 15:15:15;;;;;;;4.55;3.75;;;;;;;;;;4246615;33;20125;-63
2022/07/23 15:17:41;;;;;;;13.00;3.25;;;;;;;;;;4233802;33;20148;-63